Time;durP1;ratioP1;P1;durP2;ratioP2;P2;SDS_P1;SDS_P2;PMS_P1;PMS_P2;Temp;Humidity;BMP_temperature;BMP_pressure;BME280_temperature;BME280_humidity;BME280_pressure;Samples;Min_cycle;Max_cycle;Signal;HPM_P1;HPM_P2
2021/11/04 00:01:15;;;;;;;18.70;13.23;;;13.00;99.90;;;;;;5105299;28;20568;-76
2021/11/04 00:03:48;;;;;;;18.30;14.83;;;12.80;99.90;;;;;;5102613;28;20506;-68
2021/11/04 00:06:19;;;;;;;18.10;14.80;;;12.80;99.90;;;;;;5109659;28;20481;-70
2021/11/04 00:08:50;;;;;;;18.27;16.23;;;12.70;99.90;;;;;;5113548;28;20496;-70
2021/11/04 00:11:21;;;;;;;17.60;14.03;;;12.70;99.90;;;;;;5104694;28;20553;-76
2021/11/04 00:13:52;;;;;;;16.43;14.40;;;12.70;99.90;;;;;;5100584;28;20493;-70
2021/11/04 00:16:23;;;;;;;15.60;12.60;;;12.60;99.90;;;;;;5090767;28;20474;-69
2021/11/04 00:18:56;;;;;;;17.03;13.83;;;12.60;99.90;;;;;;5101874;28;20485;-72
2021/11/04 00:21:27;;;;;;;16.83;14.80;;;12.60;99.90;;;;;;5104590;28;20515;-73
2021/11/04 00:23:58;;;;;;;20.03;13.80;;;12.50;99.90;;;;;;5093897;28;20518;-70
2021/11/04 00:26:29;;;;;;;15.93;13.37;;;12.50;99.90;;;;;;5112271;28;20516;-70
2021/11/04 00:29:00;;;;;;;16.67;13.40;;;12.50;99.90;;;;;;5097763;28;20486;-70
2021/11/04 00:31:31;;;;;;;16.20;13.67;;;12.50;99.90;;;;;;5090662;28;20504;-73
2021/11/04 00:34:04;;;;;;;15.70;13.03;;;12.50;99.90;;;;;;5099936;28;20534;-71
2021/11/04 00:36:35;;;;;;;14.80;13.23;;;12.50;99.90;;;;;;5098553;28;20493;-76
2021/11/04 00:39:07;;;;;;;16.80;13.87;;;12.40;99.90;;;;;;5106648;28;20486;-70
2021/11/04 00:41:39;;;;;;;16.80;13.37;;;12.40;99.90;;;;;;5090208;28;21001;-73
2021/11/04 00:44:10;;;;;;;14.67;12.90;;;12.40;99.90;;;;;;5101748;28;20525;-69
2021/11/04 00:46:41;;;;;;;14.37;12.97;;;12.50;99.90;;;;;;5101394;28;20481;-70
2021/11/04 00:49:15;;;;;;;14.73;13.20;;;12.50;99.90;;;;;;5109198;28;20536;-73
2021/11/04 00:51:46;;;;;;;16.20;14.50;;;12.50;99.90;;;;;;5101504;28;20455;-70
2021/11/04 00:54:18;;;;;;;15.30;13.23;;;12.50;99.90;;;;;;5098569;28;20453;-73
2021/11/04 00:56:48;;;;;;;14.23;12.67;;;12.40;99.90;;;;;;5112094;28;20482;-71
2021/11/04 00:59:19;;;;;;;16.20;13.90;;;12.40;99.90;;;;;;5092085;28;20511;-70
2021/11/04 01:01:51;;;;;;;17.60;15.00;;;12.30;99.90;;;;;;5105947;28;20559;-70
2021/11/04 01:04:23;;;;;;;15.40;13.00;;;12.20;99.90;;;;;;5112031;28;20505;-70
2021/11/04 01:06:54;;;;;;;17.80;14.43;;;12.20;99.90;;;;;;5104292;28;20508;-70
2021/11/04 01:09:25;;;;;;;16.00;14.30;;;12.10;99.90;;;;;;5101049;28;20538;-72
2021/11/04 01:11:56;;;;;;;16.80;14.37;;;12.10;99.90;;;;;;5103328;28;20996;-71
2021/11/04 01:14:27;;;;;;;16.43;13.67;;;12.00;99.90;;;;;;5110217;28;20589;-70
2021/11/04 01:16:58;;;;;;;16.67;13.80;;;12.00;99.90;;;;;;5103780;28;20508;-70
2021/11/04 01:19:31;;;;;;;16.60;14.53;;;12.00;99.90;;;;;;5094114;28;20489;-72
2021/11/04 01:22:02;;;;;;;15.40;13.80;;;12.00;99.90;;;;;;5102657;28;20496;-70
2021/11/04 01:24:33;;;;;;;19.70;14.60;;;11.90;99.90;;;;;;5091371;28;20909;-70
2021/11/04 01:27:05;;;;;;;20.40;16.07;;;11.80;99.90;;;;;;5091452;28;20995;-70
2021/11/04 01:29:36;;;;;;;18.30;15.90;;;11.80;99.90;;;;;;5096348;28;20454;-70
2021/11/04 01:32:07;;;;;;;17.50;15.70;;;11.80;99.90;;;;;;5102333;28;20585;-69
2021/11/04 01:34:40;;;;;;;17.60;15.50;;;11.80;99.90;;;;;;5098132;28;20515;-70
2021/11/04 01:37:11;;;;;;;18.77;15.67;;;11.90;99.90;;;;;;5105074;28;20988;-69
2021/11/04 01:39:42;;;;;;;19.37;16.80;;;11.80;99.90;;;;;;5099363;28;20910;-70
2021/11/04 01:42:13;;;;;;;18.23;15.60;;;11.80;99.90;;;;;;5096136;28;20493;-70
2021/11/04 01:44:44;;;;;;;20.63;17.07;;;11.70;99.90;;;;;;5089436;28;20489;-70
2021/11/04 01:47:15;;;;;;;20.70;15.57;;;11.70;99.90;;;;;;5090916;28;20858;-70
2021/11/04 01:49:48;;;;;;;16.77;15.07;;;11.70;99.90;;;;;;5099679;28;20519;-70
2021/11/04 01:52:19;;;;;;;20.23;15.73;;;11.60;99.90;;;;;;5108891;28;20489;-71
2021/11/04 01:54:50;;;;;;;19.27;16.63;;;11.70;99.90;;;;;;5088656;28;20517;-70
2021/11/04 01:57:21;;;;;;;19.20;16.23;;;11.80;99.90;;;;;;5091623;28;20634;-70
2021/11/04 01:59:52;;;;;;;21.33;15.77;;;11.70;99.90;;;;;;5088587;28;20474;-71
2021/11/04 02:02:25;;;;;;;17.30;15.47;;;11.70;99.90;;;;;;5089739;28;20506;-70
2021/11/04 02:05:02;;;;;;;21.63;17.20;;;11.70;99.90;;;;;;5093052;28;20994;-71
2021/11/04 02:07:39;;;;;;;19.17;15.60;;;11.70;99.90;;;;;;5109191;28;20563;-71
2021/11/04 02:10:14;;;;;;;20.30;16.90;;;11.60;99.90;;;;;;5100899;28;20457;-70
2021/11/04 02:12:53;;;;;;;20.87;17.70;;;11.60;99.90;;;;;;5110140;28;20540;-71
2021/11/04 02:15:26;;;;;;;21.93;17.17;;;11.60;99.90;;;;;;5108669;28;20488;-69
2021/11/04 02:17:59;;;;;;;21.83;18.77;;;11.70;99.90;;;;;;5093869;28;20477;-69
2021/11/04 02:20:41;;;;;;;24.50;20.07;;;11.70;99.90;;;;;;5106242;28;20536;-69
2021/11/04 02:23:20;;;;;;;22.40;19.33;;;11.70;99.90;;;;;;5098615;28;20541;-69
2021/11/04 02:25:54;;;;;;;20.93;18.80;;;11.70;99.90;;;;;;5097236;28;20545;-69
2021/11/04 02:28:26;;;;;;;19.90;17.80;;;11.60;99.90;;;;;;5097589;28;20565;-69
2021/11/04 02:30:57;;;;;;;21.67;17.50;;;11.70;99.90;;;;;;5103155;28;20477;-69
2021/11/04 02:33:29;;;;;;;23.73;18.60;;;11.70;99.90;;;;;;5113653;28;20619;-69
2021/11/04 02:36:00;;;;;;;22.83;18.97;;;11.70;99.90;;;;;;5110196;28;20528;-68
2021/11/04 02:38:32;;;;;;;19.97;17.80;;;11.70;99.90;;;;;;5113045;28;20448;-68
2021/11/04 02:41:06;;;;;;;21.40;17.73;;;11.70;99.90;;;;;;5106016;28;20578;-68
2021/11/04 02:43:39;;;;;;;21.43;17.73;;;11.80;99.90;;;;;;5109930;28;20449;-69
2021/11/04 02:46:10;;;;;;;20.97;17.60;;;11.90;99.90;;;;;;5106918;28;20491;-69
2021/11/04 02:48:42;;;;;;;21.93;18.97;;;11.80;99.90;;;;;;5103726;28;20519;-68
2021/11/04 02:51:14;;;;;;;25.73;19.53;;;11.80;99.90;;;;;;5102220;28;20486;-68
2021/11/04 02:53:48;;;;;;;19.53;17.47;;;11.80;99.90;;;;;;5100068;28;20489;-69
2021/11/04 02:56:20;;;;;;;20.00;16.60;;;11.90;99.90;;;;;;5114209;28;20891;-68
2021/11/04 02:58:51;;;;;;;22.83;18.43;;;11.90;99.90;;;;;;5110268;28;21011;-69
2021/11/04 03:01:22;;;;;;;18.00;16.10;;;11.80;99.90;;;;;;5104581;28;20804;-69
2021/11/04 03:03:53;;;;;;;19.37;17.33;;;11.80;99.90;;;;;;5104811;28;20942;-69
2021/11/04 03:06:24;;;;;;;23.40;18.67;;;11.80;99.90;;;;;;5111920;28;20541;-69
2021/11/04 03:08:55;;;;;;;23.60;18.73;;;11.80;99.90;;;;;;5109084;28;20516;-69
2021/11/04 03:11:28;;;;;;;22.33;18.40;;;11.90;99.90;;;;;;5100692;28;20486;-69
2021/11/04 03:13:59;;;;;;;22.40;20.03;;;11.90;99.90;;;;;;5106308;28;20487;-69
2021/11/04 03:16:32;;;;;;;21.50;18.93;;;11.70;99.90;;;;;;5108930;28;20564;-70
2021/11/04 03:19:04;;;;;;;26.10;20.87;;;11.60;99.90;;;;;;5110790;28;20529;-69
2021/11/04 03:21:37;;;;;;;25.10;20.00;;;11.50;99.90;;;;;;5102355;28;20509;-69
2021/11/04 03:24:09;;;;;;;25.63;18.60;;;11.60;99.90;;;;;;5104283;28;20484;-69
2021/11/04 03:26:44;;;;;;;24.63;19.23;;;11.60;99.90;;;;;;5113392;28;20891;-69
2021/11/04 03:29:17;;;;;;;22.37;19.90;;;11.50;99.90;;;;;;5109883;28;20576;-69
2021/11/04 03:31:48;;;;;;;20.87;18.60;;;11.50;99.90;;;;;;5111741;28;20481;-69
2021/11/04 03:34:21;;;;;;;21.20;18.90;;;11.50;99.90;;;;;;5111747;28;20710;-68
2021/11/04 03:36:53;;;;;;;21.30;18.27;;;11.40;99.90;;;;;;5092871;28;20478;-69
2021/11/04 03:39:26;;;;;;;18.40;16.60;;;11.40;99.90;;;;;;5101210;28;20968;-68
2021/11/04 03:41:59;;;;;;;20.03;17.30;;;11.30;99.90;;;;;;5091910;28;20443;-69
2021/11/04 03:44:31;;;;;;;20.00;16.73;;;11.30;99.90;;;;;;5099931;28;20455;-70
2021/11/04 03:47:03;;;;;;;20.33;18.33;;;11.20;99.90;;;;;;5112962;28;20560;-70
2021/11/04 03:49:35;;;;;;;22.33;17.83;;;11.30;99.90;;;;;;5099542;28;20489;-70
2021/11/04 03:52:07;;;;;;;18.97;17.00;;;11.30;99.90;;;;;;5101186;28;20447;-70
2021/11/04 03:54:38;;;;;;;17.70;15.33;;;11.20;99.90;;;;;;5108737;28;20537;-69
2021/11/04 03:57:11;;;;;;;16.50;14.70;;;11.20;99.90;;;;;;5104301;28;20492;-69
2021/11/04 03:59:42;;;;;;;19.10;16.90;;;11.20;99.90;;;;;;5100115;28;20532;-69
2021/11/04 04:02:14;;;;;;;16.70;14.50;;;11.20;99.90;;;;;;5112539;28;20596;-69
2021/11/04 04:04:54;;;;;;;15.83;13.90;;;11.10;99.90;;;;;;5101914;28;21059;-69
2021/11/04 04:07:28;;;;;;;18.80;15.97;;;11.20;99.90;;;;;;5100013;28;20552;-69
2021/11/04 04:10:00;;;;;;;20.47;16.47;;;11.10;99.90;;;;;;5103328;28;20528;-69
2021/11/04 04:12:33;;;;;;;17.90;15.13;;;11.10;99.90;;;;;;5099506;28;20477;-69
2021/11/04 04:15:04;;;;;;;17.23;13.73;;;11.10;99.90;;;;;;5103853;28;20525;-69
2021/11/04 04:17:35;;;;;;;18.37;15.10;;;11.10;99.90;;;;;;5101616;28;20872;-68
2021/11/04 04:20:07;;;;;;;14.80;12.87;;;11.20;99.90;;;;;;5104169;28;21017;-67
2021/11/04 04:22:38;;;;;;;14.73;12.73;;;11.10;99.90;;;;;;5099554;28;20511;-68
2021/11/04 04:25:10;;;;;;;13.43;12.07;;;11.00;99.90;;;;;;5104469;28;20853;-68
2021/11/04 04:27:43;;;;;;;17.40;13.20;;;11.00;99.90;;;;;;5101851;28;20561;-68
2021/11/04 04:30:14;;;;;;;16.20;12.85;;;11.00;99.90;;;;;;5094498;28;20537;-67
2021/11/04 04:32:45;;;;;;;15.93;13.40;;;10.90;99.90;;;;;;5099108;28;20277;-68
2021/11/04 04:35:16;;;;;;;15.90;12.87;;;10.80;99.90;;;;;;5105560;28;20904;-68
2021/11/04 04:37:47;;;;;;;21.57;14.50;;;10.80;99.90;;;;;;5100250;28;20496;-68
2021/11/04 04:40:18;;;;;;;16.77;13.97;;;10.70;99.90;;;;;;5098145;28;20545;-68
2021/11/04 04:42:51;;;;;;;16.40;13.93;;;10.60;99.90;;;;;;5099844;28;20541;-68
2021/11/04 04:45:22;;;;;;;14.63;13.05;;;10.60;99.90;;;;;;5098906;28;20717;-68
2021/11/04 04:47:53;;;;;;;16.25;14.40;;;10.60;99.90;;;;;;5097877;28;20223;-68
2021/11/04 04:50:24;;;;;;;19.38;14.40;;;10.50;99.90;;;;;;5108443;27;20214;-68
2021/11/04 04:52:55;;;;;;;17.33;13.82;;;10.50;99.90;;;;;;5094487;28;20292;-68
2021/11/04 04:55:26;;;;;;;20.80;15.57;;;10.50;99.90;;;;;;5100711;28;20731;-68
2021/11/04 04:57:59;;;;;;;18.92;14.80;;;10.50;99.90;;;;;;5095088;28;20212;-68
2021/11/04 05:00:30;;;;;;;15.10;13.30;;;10.50;99.90;;;;;;5090969;28;20330;-69
2021/11/04 05:03:01;;;;;;;19.00;14.27;;;10.50;99.90;;;;;;5110387;28;20248;-68
2021/11/04 05:05:32;;;;;;;17.30;14.70;;;10.50;99.90;;;;;;5100635;28;20216;-69
2021/11/04 05:08:03;;;;;;;15.27;13.25;;;10.50;99.90;;;;;;5096009;28;20911;-68
2021/11/04 05:10:34;;;;;;;16.20;12.50;;;10.60;99.90;;;;;;5108948;28;20246;-69
2021/11/04 05:13:07;;;;;;;13.80;12.10;;;10.60;99.90;;;;;;5096704;28;20481;-68
2021/11/04 05:15:38;;;;;;;14.90;12.43;;;10.60;99.90;;;;;;5100033;28;20569;-68
2021/11/04 05:18:09;;;;;;;14.37;12.67;;;10.60;99.90;;;;;;5096523;28;20974;-69
2021/11/04 05:20:41;;;;;;;18.27;13.85;;;10.60;99.90;;;;;;5107733;28;20885;-68
2021/11/04 05:23:12;;;;;;;16.65;12.38;;;10.60;99.90;;;;;;5096909;28;20304;-68
2021/11/04 05:25:43;;;;;;;20.33;13.63;;;10.40;99.90;;;;;;5100815;28;20307;-70
2021/11/04 05:28:15;;;;;;;17.83;13.68;;;10.30;99.90;;;;;;5110198;28;20211;-68
2021/11/04 05:30:46;;;;;;;15.60;13.40;;;10.30;99.90;;;;;;5106396;28;20231;-69
2021/11/04 05:33:17;;;;;;;18.15;14.43;;;10.20;99.90;;;;;;5110183;28;21032;-68
2021/11/04 05:35:48;;;;;;;21.07;15.13;;;10.20;99.90;;;;;;5093055;28;20224;-68
2021/11/04 05:38:19;;;;;;;19.17;14.73;;;10.10;99.90;;;;;;5108600;28;20465;-69
2021/11/04 05:40:51;;;;;;;18.90;15.13;;;10.10;99.90;;;;;;5110780;28;20207;-69
2021/11/04 05:43:23;;;;;;;20.48;15.07;;;10.00;99.90;;;;;;5101187;28;20699;-69
2021/11/04 05:45:55;;;;;;;20.33;15.20;;;10.10;99.90;;;;;;5110779;28;20208;-68
2021/11/04 05:48:26;;;;;;;18.30;14.15;;;10.00;99.90;;;;;;5094796;28;20649;-68
2021/11/04 05:50:57;;;;;;;19.80;15.43;;;10.00;99.90;;;;;;5093141;28;20250;-68
2021/11/04 05:53:28;;;;;;;20.38;14.70;;;10.00;99.90;;;;;;5102110;28;20218;-68
2021/11/04 05:55:59;;;;;;;17.98;13.55;;;10.00;99.90;;;;;;5103876;28;20261;-68
2021/11/04 05:58:32;;;;;;;16.15;12.93;;;10.10;99.90;;;;;;5098412;28;20219;-69
2021/11/04 06:01:04;;;;;;;16.02;12.93;;;10.10;99.90;;;;;;5093786;28;20243;-68
2021/11/04 06:03:35;;;;;;;18.38;13.23;;;10.10;99.90;;;;;;5101502;28;20526;-69
2021/11/04 06:06:06;;;;;;;16.02;11.27;;;10.10;99.90;;;;;;5106854;28;20243;-69
2021/11/04 06:08:37;;;;;;;16.75;12.98;;;10.10;99.90;;;;;;5109167;28;20216;-69
2021/11/04 06:11:08;;;;;;;15.85;13.10;;;10.10;99.90;;;;;;5108379;28;20208;-67
2021/11/04 06:13:41;;;;;;;12.73;11.30;;;10.10;99.90;;;;;;5100495;28;20256;-67
2021/11/04 06:16:14;;;;;;;16.23;12.05;;;10.20;99.90;;;;;;5099712;28;20255;-68
2021/11/04 06:18:45;;;;;;;13.32;11.93;;;10.20;99.90;;;;;;5098214;28;20227;-67
2021/11/04 06:21:16;;;;;;;11.70;10.00;;;10.20;99.90;;;;;;5095521;28;20250;-67
2021/11/04 06:23:47;;;;;;;12.07;10.20;;;10.30;99.90;;;;;;5097664;28;20909;-67
2021/11/04 06:26:18;;;;;;;15.55;10.52;;;10.30;99.90;;;;;;5103742;28;20677;-67
2021/11/04 06:28:51;;;;;;;12.52;10.55;;;10.40;99.90;;;;;;5099138;28;20243;-67
2021/11/04 06:31:22;;;;;;;12.13;10.07;;;10.40;99.90;;;;;;5108469;28;20322;-67
2021/11/04 06:33:53;;;;;;;15.63;11.20;;;10.40;99.90;;;;;;5103937;28;20478;-68
2021/11/04 06:36:25;;;;;;;12.77;10.67;;;10.40;99.90;;;;;;5098448;28;20524;-67
2021/11/04 06:38:56;;;;;;;10.90;9.50;;;10.40;99.90;;;;;;5094199;28;20493;-68
2021/11/04 06:41:27;;;;;;;13.37;11.40;;;10.40;99.90;;;;;;5097982;28;20556;-68
2021/11/04 06:44:00;;;;;;;12.70;10.30;;;10.40;99.90;;;;;;5104086;28;20589;-68
2021/11/04 06:46:33;;;;;;;11.70;9.52;;;10.40;99.90;;;;;;5098095;28;20212;-68
2021/11/04 06:49:07;;;;;;;15.15;11.85;;;10.50;99.90;;;;;;5105422;28;20576;-68
2021/11/04 06:51:42;;;;;;;14.53;11.00;;;10.50;99.90;;;;;;5109765;28;20267;-68
2021/11/04 06:54:15;;;;;;;16.13;12.83;;;10.50;99.90;;;;;;5101198;28;20994;-67
2021/11/04 06:56:48;;;;;;;14.40;11.95;;;10.60;99.90;;;;;;5100633;28;20449;-68
2021/11/04 06:59:22;;;;;;;19.27;12.97;;;10.50;99.90;;;;;;5107966;28;20280;-68
2021/11/04 07:01:55;;;;;;;20.67;14.30;;;10.50;99.90;;;;;;5108206;28;20504;-67
2021/11/04 07:04:30;;;;;;;14.38;12.68;;;10.50;99.90;;;;;;5100434;28;20627;-68
2021/11/04 07:07:07;;;;;;;14.75;12.43;;;10.50;99.90;;;;;;5088006;28;20244;-67
2021/11/04 07:09:40;;;;;;;17.50;14.00;;;10.50;99.90;;;;;;5099752;28;20263;-67
2021/11/04 07:12:13;;;;;;;17.48;13.35;;;10.60;99.90;;;;;;5108311;28;20456;-67
2021/11/04 07:14:47;;;;;;;14.75;12.75;;;10.60;99.90;;;;;;5101210;28;20289;-68
2021/11/04 07:17:18;;;;;;;17.73;13.95;;;10.60;99.90;;;;;;5098038;28;20251;-68
2021/11/04 07:19:49;;;;;;;18.90;13.45;;;10.60;99.90;;;;;;5103006;28;20352;-68
2021/11/04 07:22:39;;;;;;;15.33;13.30;;;10.60;99.90;;;;;;5097615;28;20598;-67
2021/11/04 07:25:11;;;;;;;16.03;13.30;;;10.60;99.90;;;;;;5091451;28;20505;-68
2021/11/04 07:27:54;;;;;;;15.13;12.80;;;10.50;99.90;;;;;;5100675;28;20573;-67
2021/11/04 07:30:27;;;;;;;15.65;13.30;;;10.60;99.90;;;;;;5103465;28;20579;-68
2021/11/04 07:33:00;;;;;;;14.93;12.77;;;10.60;99.90;;;;;;5096856;28;20235;-68
2021/11/04 07:35:32;;;;;;;14.10;11.63;;;10.70;99.90;;;;;;5103129;28;20445;-68
2021/11/04 07:38:06;;;;;;;14.87;12.40;;;10.60;99.90;;;;;;5105265;28;20848;-67
2021/11/04 07:40:37;;;;;;;20.75;13.73;;;10.60;99.90;;;;;;5093412;28;20447;-68
2021/11/04 07:43:09;;;;;;;14.40;12.23;;;10.60;99.90;;;;;;5098270;28;20208;-68
2021/11/04 07:45:41;;;;;;;17.67;12.20;;;10.60;99.90;;;;;;5102764;28;20458;-67
2021/11/04 07:48:12;;;;;;;13.77;12.30;;;10.60;99.90;;;;;;5111999;28;20489;-67
2021/11/04 07:50:48;;;;;;;13.67;11.97;;;10.60;99.90;;;;;;5106601;28;20481;-67
2021/11/04 07:53:19;;;;;;;12.07;10.77;;;10.50;99.90;;;;;;5099391;28;20465;-67
2021/11/04 07:55:52;;;;;;;12.75;10.88;;;10.50;99.90;;;;;;5088460;28;20978;-67
2021/11/04 07:58:24;;;;;;;12.10;10.65;;;10.50;99.90;;;;;;5100952;28;20274;-67
2021/11/04 08:00:56;;;;;;;12.00;10.35;;;10.50;99.90;;;;;;5098246;28;20239;-68
2021/11/04 08:03:27;;;;;;;12.98;10.30;;;10.50;99.90;;;;;;5097919;28;20265;-67
2021/11/04 08:05:59;;;;;;;11.05;9.95;;;10.50;99.90;;;;;;5098828;28;20229;-68
2021/11/04 08:08:30;;;;;;;12.13;10.88;;;10.50;99.90;;;;;;5100482;28;20258;-68
2021/11/04 08:11:01;;;;;;;13.32;9.63;;;10.50;99.90;;;;;;5098682;28;20224;-67
2021/11/04 08:13:32;;;;;;;11.95;10.15;;;10.50;99.90;;;;;;5099343;28;20219;-67
2021/11/04 08:16:05;;;;;;;9.30;8.40;;;10.50;99.90;;;;;;5100909;28;20247;-67
2021/11/04 08:18:36;;;;;;;11.27;8.95;;;10.50;99.90;;;;;;5099245;28;20653;-67
2021/11/04 08:21:07;;;;;;;11.13;9.43;;;10.50;99.90;;;;;;5104538;28;20258;-67
2021/11/04 08:23:38;;;;;;;11.15;9.50;;;10.50;99.90;;;;;;5100231;28;21321;-68
2021/11/04 08:26:09;;;;;;;11.30;10.10;;;10.60;99.90;;;;;;5096192;28;20219;-68
2021/11/04 08:28:41;;;;;;;12.85;10.25;;;10.60;99.90;;;;;;5105217;28;20215;-68
2021/11/04 08:31:13;;;;;;;12.90;10.73;;;10.60;99.90;;;;;;5094692;28;20231;-68
2021/11/04 08:33:44;;;;;;;11.80;10.43;;;10.60;99.90;;;;;;5104949;28;20458;-68
2021/11/04 08:36:15;;;;;;;11.20;10.03;;;10.70;99.90;;;;;;5105574;28;20216;-68
2021/11/04 08:38:46;;;;;;;13.30;9.60;;;10.70;99.90;;;;;;5102862;28;20545;-68
2021/11/04 08:41:17;;;;;;;13.77;10.20;;;10.70;99.90;;;;;;5090237;28;20453;-68
2021/11/04 08:43:48;;;;;;;11.70;10.50;;;10.70;99.90;;;;;;5101138;28;20485;-68
2021/11/04 08:46:21;;;;;;;12.67;10.07;;;10.70;99.90;;;;;;5094639;28;20532;-68
2021/11/04 08:48:52;;;;;;;9.50;8.60;;;10.70;99.90;;;;;;5088865;28;20541;-68
2021/11/04 08:51:23;;;;;;;11.03;9.33;;;10.70;99.90;;;;;;5111674;28;20505;-68
2021/11/04 08:53:54;;;;;;;11.37;8.70;;;10.70;99.90;;;;;;5104718;28;20510;-68
2021/11/04 08:56:42;;;;;;;10.88;8.80;;;10.70;99.90;;;;;;5103168;28;20454;-68
2021/11/04 08:59:13;;;;;;;14.20;10.10;;;10.70;99.90;;;;;;5102467;28;20683;-68
2021/11/04 09:01:45;;;;;;;9.97;8.60;;;10.70;99.90;;;;;;5101218;28;20513;-68
2021/11/04 09:04:21;;;;;;;7.77;6.97;;;10.70;99.90;;;;;;5101289;28;20458;-68
2021/11/04 09:06:53;;;;;;;8.13;7.22;;;10.80;99.90;;;;;;5109764;28;20490;-68
2021/11/04 09:09:25;;;;;;;8.27;7.17;;;10.80;99.90;;;;;;5103024;28;20247;-68
2021/11/04 09:11:56;;;;;;;8.00;7.20;;;10.70;99.90;;;;;;5091185;28;20543;-68
2021/11/04 09:14:27;;;;;;;7.70;6.90;;;10.70;99.90;;;;;;5102816;28;20827;-68
2021/11/04 09:17:00;;;;;;;8.10;6.85;;;10.70;99.90;;;;;;5100686;28;20482;-67
2021/11/04 09:19:30;;;;;;;8.13;7.18;;;10.60;99.90;;;;;;5097423;28;20247;-67
2021/11/04 09:22:02;;;;;;;7.97;7.18;;;10.60;99.90;;;;;;5099602;27;20586;-69
2021/11/04 09:24:33;;;;;;;8.17;7.37;;;10.60;99.90;;;;;;5104022;28;20239;-67
2021/11/04 09:27:04;;;;;;;7.55;6.85;;;10.70;99.90;;;;;;5099396;28;20482;-68
2021/11/04 09:29:36;;;;;;;8.93;7.00;;;10.70;99.90;;;;;;5102833;28;20277;-68
2021/11/04 09:32:09;;;;;;;9.90;8.33;;;10.70;99.90;;;;;;5111112;28;20556;-68
2021/11/04 09:34:59;;;;;;;7.50;6.85;;;10.80;99.90;;;;;;5100042;28;20450;-68
2021/11/04 09:37:30;;;;;;;11.40;7.90;;;10.80;99.90;;;;;;5097377;28;20302;-68
2021/11/04 09:40:01;;;;;;;8.53;7.63;;;10.80;99.90;;;;;;5095167;28;20867;-68
2021/11/04 09:42:32;;;;;;;9.73;8.73;;;10.90;99.90;;;;;;5088754;28;20546;-68
2021/11/04 09:45:04;;;;;;;10.13;9.13;;;10.80;99.90;;;;;;5090716;28;20723;-73
2021/11/04 09:47:37;;;;;;;8.97;8.17;;;10.80;99.90;;;;;;5088119;28;20554;-68
2021/11/04 09:50:11;;;;;;;8.50;7.70;;;10.80;99.90;;;;;;5103707;28;20981;-68
2021/11/04 09:52:43;;;;;;;7.63;6.90;;;10.80;99.90;;;;;;5101720;28;20565;-68
2021/11/04 09:55:18;;;;;;;8.87;7.90;;;10.80;99.90;;;;;;5109394;28;20481;-68
2021/11/04 09:57:50;;;;;;;8.65;7.85;;;10.80;99.90;;;;;;5096294;28;20476;-68
2021/11/04 10:00:23;;;;;;;9.33;8.50;;;10.80;99.90;;;;;;5100817;28;20216;-68
2021/11/04 10:03:08;;;;;;;9.27;7.70;;;10.80;99.90;;;;;;5097834;28;20534;-68
2021/11/04 10:05:46;;;;;;;8.90;8.00;;;10.80;99.90;;;;;;5101790;28;20614;-68
2021/11/04 10:08:20;;;;;;;8.50;7.60;;;10.80;99.90;;;;;;5096232;28;20473;-68
2021/11/04 10:11:06;;;;;;;7.83;7.13;;;10.80;99.90;;;;;;5101861;28;20509;-68
2021/11/04 10:13:37;;;;;;;8.30;7.50;;;10.80;99.90;;;;;;5106121;28;20661;-68
2021/11/04 10:16:09;;;;;;;8.13;7.37;;;10.90;99.90;;;;;;5098467;28;20533;-68
2021/11/04 10:18:43;;;;;;;7.83;7.13;;;10.90;99.90;;;;;;5104733;28;20456;-68
2021/11/04 10:21:36;;;;;;;6.77;6.17;;;10.90;99.90;;;;;;5102172;28;20474;-68
2021/11/04 10:24:08;;;;;;;6.83;6.23;;;11.00;99.90;;;;;;5101802;28;20477;-68
2021/11/04 10:26:40;;;;;;;7.37;6.67;;;11.00;99.90;;;;;;5110283;28;20481;-68
2021/11/04 10:29:12;;;;;;;8.53;7.70;;;11.00;99.90;;;;;;5103007;28;20485;-68
2021/11/04 10:31:45;;;;;;;7.43;6.60;;;11.00;99.90;;;;;;5108910;28;20552;-68
2021/11/04 10:34:28;;;;;;;6.20;5.60;;;11.00;99.90;;;;;;5104172;28;20449;-68
2021/11/04 10:37:10;;;;;;;7.00;6.40;;;11.00;99.90;;;;;;5099073;28;20489;-68
2021/11/04 10:39:42;;;;;;;6.73;6.17;;;11.10;99.90;;;;;;5098084;28;20572;-68
2021/11/04 10:42:13;;;;;;;6.30;5.80;;;11.10;99.90;;;;;;5095526;28;20485;-67
2021/11/04 10:44:44;;;;;;;6.20;5.60;;;11.10;99.90;;;;;;5106609;28;20507;-68
2021/11/04 10:47:21;;;;;;;6.00;5.43;;;11.10;99.90;;;;;;5088497;28;20490;-68
2021/11/04 10:49:54;;;;;;;5.83;5.33;;;11.10;99.90;;;;;;5098287;28;21028;-68
2021/11/04 10:52:26;;;;;;;5.43;4.93;;;11.20;99.90;;;;;;5110001;28;20476;-69
2021/11/04 10:54:57;;;;;;;6.33;5.73;;;11.20;99.90;;;;;;5093831;28;20536;-68
2021/11/04 10:57:39;;;;;;;5.80;4.83;;;11.20;99.90;;;;;;5108021;28;20453;-68
2021/11/04 11:00:17;;;;;;;5.60;5.10;;;11.30;99.90;;;;;;5103160;28;20543;-68
2021/11/04 11:03:08;;;;;;;6.53;5.20;;;11.30;99.90;;;;;;5101202;28;20578;-70
2021/11/04 11:05:42;;;;;;;5.40;4.83;;;11.30;99.90;;;;;;5093320;28;20461;-68
2021/11/04 11:08:16;;;;;;;5.00;4.50;;;11.40;99.90;;;;;;5098011;28;20541;-68
2021/11/04 11:10:48;;;;;;;6.40;5.20;;;11.40;99.90;;;;;;5112083;28;20544;-68
2021/11/04 11:13:26;;;;;;;5.03;4.53;;;11.40;99.90;;;;;;5111199;28;20985;-68
2021/11/04 11:15:57;;;;;;;5.97;4.80;;;11.50;99.90;;;;;;5108630;28;20488;-68
2021/11/04 11:18:31;;;;;;;4.97;4.57;;;11.50;99.90;;;;;;5101324;28;20493;-68
2021/11/04 11:21:04;;;;;;;4.77;4.20;;;11.60;99.90;;;;;;5111757;28;20496;-68
2021/11/04 11:23:35;;;;;;;4.50;3.90;;;11.70;99.90;;;;;;5100507;28;20490;-68
2021/11/04 11:26:07;;;;;;;6.50;4.00;;;11.70;99.90;;;;;;5111944;28;20481;-68
2021/11/04 11:28:40;;;;;;;4.50;4.00;;;11.70;99.90;;;;;;5112908;28;20898;-68
2021/11/04 11:31:16;;;;;;;7.00;4.23;;;11.70;99.90;;;;;;5109910;28;20540;-68
2021/11/04 11:33:49;;;;;;;4.07;3.67;;;11.80;99.90;;;;;;5095334;28;20548;-68
2021/11/04 11:36:23;;;;;;;4.63;4.03;;;11.80;99.90;;;;;;5107684;28;20956;-68
2021/11/04 11:39:15;;;;;;;4.50;3.60;;;11.80;99.90;;;;;;5092804;28;20450;-68
2021/11/04 11:42:12;;;;;;;4.07;3.67;;;11.80;99.90;;;;;;5104193;28;20446;-68
2021/11/04 11:44:49;;;;;;;4.70;3.70;;;11.80;99.90;;;;;;5092442;28;20484;-68
2021/11/04 11:47:21;;;;;;;4.47;4.17;;;11.80;99.90;;;;;;5091057;28;20482;-68
2021/11/04 11:50:21;;;;;;;3.93;3.63;;;11.80;99.90;;;;;;5101173;28;20963;-68
2021/11/04 11:52:56;;;;;;;4.47;3.50;;;11.80;99.90;;;;;;5095919;28;20553;-68
2021/11/04 11:55:38;;;;;;;4.47;3.97;;;11.80;99.90;;;;;;5105960;28;20457;-68
2021/11/04 11:58:33;;;;;;;5.40;4.33;;;11.80;99.90;;;;;;5098541;28;20454;-68
2021/11/04 12:01:07;;;;;;;5.33;4.83;;;11.90;99.90;;;;;;5099073;28;20458;-68
2021/11/04 12:04:00;;;;;;;8.80;4.60;;;11.90;99.90;;;;;;5098566;28;20501;-68
2021/11/04 12:06:53;;;;;;;5.90;5.30;;;11.80;99.90;;;;;;5093584;28;20481;-68
2021/11/04 12:09:48;;;;;;;7.10;5.60;;;11.70;99.90;;;;;;5100326;28;20450;-68
2021/11/04 12:12:47;;;;;;;6.20;5.70;;;11.60;99.90;;;;;;5091995;28;20629;-68
2021/11/04 12:15:18;;;;;;;6.43;5.80;;;11.60;99.90;;;;;;5091132;28;20485;-68
2021/11/04 12:18:17;;;;;;;6.67;6.00;;;11.50;99.90;;;;;;5092274;28;20458;-68
2021/11/04 12:20:54;;;;;;;7.60;6.53;;;11.40;99.90;;;;;;5095093;28;20486;-68
2021/11/04 12:23:46;;;;;;;8.67;6.50;;;11.40;99.90;;;;;;5100937;28;20459;-68
2021/11/04 12:26:29;;;;;;;7.53;6.73;;;11.30;99.90;;;;;;5105604;28;20521;-67
2021/11/04 12:29:00;;;;;;;10.10;8.80;;;11.20;99.90;;;;;;5099976;28;20501;-68
2021/11/04 12:31:32;;;;;;;8.50;6.80;;;11.20;99.90;;;;;;5102550;28;20455;-68
2021/11/04 12:34:04;;;;;;;8.33;7.53;;;11.20;99.90;;;;;;5104858;28;20489;-68
2021/11/04 12:36:39;;;;;;;7.80;7.00;;;11.20;99.90;;;;;;5110341;28;20449;-68
2021/11/04 12:39:24;;;;;;;7.20;6.30;;;11.20;99.90;;;;;;5111765;28;20552;-68
2021/11/04 12:41:58;;;;;;;6.90;6.07;;;11.20;99.90;;;;;;5091726;28;20459;-68
2021/11/04 12:44:31;;;;;;;7.47;6.77;;;11.20;99.90;;;;;;5105045;28;20506;-68
2021/11/04 12:47:03;;;;;;;7.10;6.40;;;11.20;99.90;;;;;;5091357;28;20451;-68
2021/11/04 12:49:36;;;;;;;8.00;7.30;;;11.20;99.90;;;;;;5098781;28;20530;-67
2021/11/04 12:52:09;;;;;;;7.23;6.33;;;11.20;99.90;;;;;;5091432;28;20495;-67
2021/11/04 12:54:42;;;;;;;8.00;6.70;;;11.20;99.90;;;;;;5099168;28;20537;-67
2021/11/04 12:57:16;;;;;;;5.60;5.10;;;11.20;99.90;;;;;;5104064;28;20540;-68
2021/11/04 12:59:49;;;;;;;6.40;5.90;;;11.20;99.90;;;;;;5100108;28;20560;-67
2021/11/04 13:02:22;;;;;;;5.93;5.40;;;11.20;99.90;;;;;;5090994;28;20553;-67
2021/11/04 13:05:11;;;;;;;6.27;5.67;;;11.10;99.90;;;;;;5102246;28;20541;-67